Time;durP1;ratioP1;P1;durP2;ratioP2;P2;SDS_P1;SDS_P2;PMS_P1;PMS_P2;Temp;Humidity;BMP_temperature;BMP_pressure;BME280_temperature;BME280_humidity;BME280_pressure;Samples;Min_cycle;Max_cycle;Signal;HPM_P1;HPM_P2
2021/08/29 00:01:17;;;;;;;2.10;1.00;;;15.80;99.90;;;;;;20457540;28;20047;-45
2021/08/29 00:11:18;;;;;;;2.03;0.82;;;16.00;99.90;;;;;;20423641;28;20423;-45
2021/08/29 00:21:19;;;;;;;3.80;1.40;;;15.90;99.90;;;;;;20420679;28;20613;-45
2021/08/29 00:31:20;;;;;;;2.35;0.95;;;16.00;99.90;;;;;;20417369;28;20039;-45
2021/08/29 00:41:21;;;;;;;2.45;0.68;;;16.00;99.90;;;;;;20460048;28;20047;-45
2021/08/29 00:51:22;;;;;;;2.50;0.75;;;16.00;99.90;;;;;;20527691;28;20076;-45
2021/08/29 01:01:32;;;;;;;2.55;1.02;;;16.00;99.90;;;;;;20524041;28;20058;-45
2021/08/29 01:11:35;;;;;;;1.85;0.70;;;16.10;99.90;;;;;;20523313;28;20038;-45
2021/08/29 01:21:36;;;;;;;4.35;1.08;;;16.10;99.90;;;;;;20513636;28;20287;-45
2021/08/29 01:31:40;;;;;;;8.65;1.17;;;16.00;99.90;;;;;;20537659;28;20476;-45
2021/08/29 01:41:45;;;;;;;2.72;1.00;;;16.10;99.90;;;;;;20473652;28;20044;-45
2021/08/29 01:51:46;;;;;;;1.65;0.73;;;16.10;99.90;;;;;;20440545;28;20365;-45
2021/08/29 02:01:48;;;;;;;1.92;0.70;;;16.10;99.90;;;;;;20451336;28;20047;-45
2021/08/29 02:11:51;;;;;;;5.10;0.88;;;16.10;99.90;;;;;;20474146;28;20035;-45
2021/08/29 02:21:52;;;;;;;3.08;0.95;;;16.00;99.90;;;;;;20475408;28;20055;-45
2021/08/29 02:42:06;;;;;;;2.97;1.02;;;16.00;99.90;;;;;;20679340;23;20593;-81
2021/08/29 02:52:09;;;;;;;4.63;1.27;;;15.90;99.90;;;;;;20613798;28;20039;-81
2021/08/29 03:02:11;;;;;;;2.88;0.70;;;15.90;99.90;;;;;;20666610;28;20046;-81
2021/08/29 03:12:13;;;;;;;2.13;1.05;;;15.90;99.90;;;;;;20654245;28;20393;-81
2021/08/29 03:22:14;;;;;;;3.95;1.88;;;15.80;99.90;;;;;;20614698;28;20118;-82
2021/08/29 03:32:15;;;;;;;3.95;0.60;;;15.80;99.90;;;;;;20634478;28;20046;-81
2021/08/29 03:42:19;;;;;;;4.30;1.00;;;15.90;99.90;;;;;;20536932;28;20049;-81
2021/08/29 03:52:21;;;;;;;2.22;0.93;;;15.90;99.90;;;;;;20546467;28;20613;-81
2021/08/29 04:02:23;;;;;;;2.85;0.98;;;15.90;99.90;;;;;;20562521;28;20230;-80
2021/08/29 04:12:28;;;;;;;2.95;0.63;;;15.90;99.90;;;;;;20544037;28;20517;-81
2021/08/29 04:22:29;;;;;;;4.57;0.73;;;16.00;99.90;;;;;;20528903;28;20044;-81
2021/08/29 04:32:31;;;;;;;1.95;0.85;;;15.90;99.90;;;;;;20594558;28;20042;-82
2021/08/29 04:42:33;;;;;;;2.22;1.08;;;15.90;99.90;;;;;;20571162;28;20047;-82
2021/08/29 04:52:34;;;;;;;2.25;0.50;;;15.90;99.90;;;;;;20603523;28;20110;-81
2021/08/29 05:02:35;;;;;;;2.45;0.57;;;16.00;99.90;;;;;;20588232;28;20041;-81
2021/08/29 05:12:36;;;;;;;1.25;0.50;;;16.00;99.90;;;;;;20602880;28;20030;-81
2021/08/29 05:22:37;;;;;;;5.88;0.80;;;16.00;99.90;;;;;;20551568;28;20047;-81
2021/08/29 05:32:38;;;;;;;2.53;0.75;;;16.00;99.90;;;;;;20561387;28;20392;-81
2021/08/29 05:42:39;;;;;;;3.58;0.73;;;16.10;99.90;;;;;;20546897;28;20387;-81
2021/08/29 05:52:42;;;;;;;1.40;0.57;;;16.00;99.90;;;;;;20569438;28;20588;-81
2021/08/29 06:02:43;;;;;;;10.27;1.15;;;16.10;99.90;;;;;;20561653;28;20058;-81
2021/08/29 06:12:45;;;;;;;2.13;0.70;;;16.10;99.90;;;;;;20558325;28;20061;-80
2021/08/29 06:22:46;;;;;;;2.28;0.47;;;16.10;99.90;;;;;;20589752;28;20039;-81
2021/08/29 06:32:47;;;;;;;6.70;0.57;;;16.20;99.90;;;;;;20532990;28;20031;-80
2021/08/29 06:42:49;;;;;;;5.55;0.93;;;16.20;99.90;;;;;;20523293;28;20097;-81
2021/08/29 06:52:50;;;;;;;2.75;0.70;;;16.30;99.90;;;;;;20548958;28;20482;-81
2021/08/29 07:02:51;;;;;;;3.42;0.68;;;16.30;99.90;;;;;;20573216;28;20138;-82
2021/08/29 07:12:52;;;;;;;3.83;0.93;;;16.30;99.90;;;;;;20527687;28;20393;-81
2021/08/29 07:22:53;;;;;;;2.88;0.95;;;16.40;99.90;;;;;;20585157;28;20060;-81
2021/08/29 07:32:56;;;;;;;5.03;1.33;;;16.40;99.90;;;;;;20623744;28;20050;-80
2021/08/29 07:42:57;;;;;;;3.97;1.00;;;16.40;99.90;;;;;;20581015;28;20300;-79
2021/08/29 07:52:58;;;;;;;2.67;0.80;;;16.50;99.90;;;;;;20583736;28;20049;-80
2021/08/29 08:02:59;;;;;;;4.28;0.93;;;16.60;99.90;;;;;;20569182;28;20034;-80
2021/08/29 08:13:00;;;;;;;2.22;0.85;;;16.70;99.90;;;;;;20518513;28;20404;-80
2021/08/29 08:23:01;;;;;;;5.10;1.00;;;16.60;99.90;;;;;;20536427;28;20660;-81
2021/08/29 08:33:04;;;;;;;2.95;1.00;;;16.60;99.90;;;;;;20601030;28;20038;-80
2021/08/29 08:43:05;;;;;;;6.28;0.77;;;16.70;99.90;;;;;;20561543;28;20051;-80
2021/08/29 08:53:06;;;;;;;3.28;0.40;;;16.70;99.90;;;;;;20544048;28;20073;-80
2021/08/29 09:03:09;;;;;;;3.33;0.73;;;16.90;99.90;;;;;;20530474;28;20051;-80
2021/08/29 09:13:11;;;;;;;2.05;0.40;;;16.90;99.90;;;;;;20560888;28;20487;-80
2021/08/29 09:23:13;;;;;;;4.38;0.57;;;16.80;99.90;;;;;;20578703;28;20046;-80
2021/08/29 09:33:16;;;;;;;6.00;1.48;;;16.80;99.90;;;;;;20535770;28;20146;-80
2021/08/29 09:43:17;;;;;;;1.88;0.47;;;17.00;99.90;;;;;;20528719;28;20055;-80
2021/08/29 09:53:20;;;;;;;4.32;1.20;;;17.10;99.90;;;;;;20585127;28;20046;-80
2021/08/29 10:03:27;;;;;;;2.05;0.63;;;17.20;99.90;;;;;;20527124;28;20420;-80
2021/08/29 10:13:29;;;;;;;1.75;0.60;;;17.10;99.90;;;;;;20557625;28;21590;-79
2021/08/29 10:23:30;;;;;;;9.13;0.98;;;17.00;99.90;;;;;;20558954;28;20052;-80
2021/08/29 10:33:32;;;;;;;6.00;0.90;;;16.90;99.90;;;;;;20568090;28;20051;-80
2021/08/29 10:43:36;;;;;;;4.28;0.80;;;17.00;99.90;;;;;;20552367;28;20072;-80
2021/08/29 10:53:41;;;;;;;8.40;1.00;;;17.00;99.90;;;;;;20548406;28;20042;-80
2021/08/29 11:03:45;;;;;;;5.13;1.25;;;17.10;99.90;;;;;;20559225;28;20044;-80
2021/08/29 11:13:46;;;;;;;3.42;1.33;;;17.10;99.90;;;;;;20544754;28;20040;-80
2021/08/29 11:23:47;;;;;;;3.42;1.00;;;17.10;99.90;;;;;;20519610;28;20051;-80
2021/08/29 11:34:05;;;;;;;4.80;0.88;;;17.10;99.90;;;;;;20597239;28;20044;-80
2021/08/29 11:44:19;;;;;;;7.47;1.55;;;17.20;99.90;;;;;;20521501;28;20046;-80
2021/08/29 11:54:20;;;;;;;6.35;1.63;;;17.30;99.90;;;;;;20605347;28;20048;-80
2021/08/29 12:04:21;;;;;;;4.05;0.73;;;17.30;99.90;;;;;;20598786;28;20284;-79
2021/08/29 12:14:28;;;;;;;1.88;0.77;;;17.30;99.90;;;;;;20539527;28;20031;-79
2021/08/29 12:24:35;;;;;;;3.92;1.50;;;17.10;99.90;;;;;;20539826;28;20053;-80
2021/08/29 12:34:38;;;;;;;9.27;1.63;;;17.10;99.90;;;;;;20522768;28;20552;-80
2021/08/29 12:44:39;;;;;;;3.80;1.10;;;17.00;99.90;;;;;;20562456;28;20047;-80
2021/08/29 12:54:41;;;;;;;2.47;0.85;;;16.90;99.90;;;;;;20540647;28;20045;-80
2021/08/29 13:04:48;;;;;;;4.57;1.63;;;17.00;99.90;;;;;;20524526;28;20555;-80
2021/08/29 13:14:50;;;;;;;3.42;1.13;;;17.10;99.90;;;;;;20566905;28;20049;-80
2021/08/29 13:24:51;;;;;;;6.25;1.25;;;17.20;99.90;;;;;;20579095;28;20467;-80
2021/08/29 13:34:52;;;;;;;3.35;1.02;;;17.10;99.90;;;;;;20533984;28;20425;-80
2021/08/29 13:44:55;;;;;;;4.20;0.85;;;17.20;99.90;;;;;;20550241;28;20053;-80
2021/08/29 13:54:56;;;;;;;4.70;1.63;;;17.30;99.90;;;;;;20550031;28;20291;-80
2021/08/29 14:04:57;;;;;;;1.92;0.82;;;17.20;99.90;;;;;;20579757;28;20064;-80
2021/08/29 14:14:59;;;;;;;19.58;1.30;;;17.20;99.90;;;;;;20557334;28;20038;-80
2021/08/29 14:25:00;;;;;;;2.08;1.02;;;17.40;99.90;;;;;;20563211;28;20043;-80
2021/08/29 14:35:03;;;;;;;2.25;0.95;;;17.30;99.90;;;;;;20546619;28;20055;-80
2021/08/29 14:45:06;;;;;;;2.15;0.90;;;17.30;99.90;;;;;;20556933;28;20065;-78
2021/08/29 14:55:08;;;;;;;2.50;1.13;;;17.40;99.90;;;;;;20547617;28;20035;-78
2021/08/29 15:05:10;;;;;;;4.07;1.08;;;17.50;99.90;;;;;;20589635;28;20047;-78
2021/08/29 15:15:12;;;;;;;4.28;1.13;;;17.50;99.90;;;;;;20574225;28;20058;-80
2021/08/29 15:25:13;;;;;;;3.40;1.05;;;17.60;99.90;;;;;;20570157;28;20043;-80
2021/08/29 15:35:14;;;;;;;2.63;1.33;;;17.60;99.90;;;;;;20534342;28;20055;-80
2021/08/29 15:45:15;;;;;;;3.08;0.80;;;17.60;99.90;;;;;;20533124;28;20056;-80
2021/08/29 15:55:18;;;;;;;3.00;1.10;;;17.50;99.90;;;;;;20550928;28;20050;-80
2021/08/29 16:05:20;;;;;;;3.78;0.85;;;17.50;99.90;;;;;;20573791;28;20508;-80
2021/08/29 16:15:22;;;;;;;2.67;0.82;;;17.40;99.90;;;;;;20513281;28;21444;-80
2021/08/29 16:25:23;;;;;;;2.58;0.70;;;17.40;99.90;;;;;;20574394;28;20050;-80
2021/08/29 16:35:24;;;;;;;5.20;1.70;;;17.40;99.90;;;;;;20585295;28;20093;-80
2021/08/29 16:45:25;;;;;;;4.22;1.48;;;17.40;99.90;;;;;;20593719;28;20050;-80
2021/08/29 16:55:27;;;;;;;3.28;1.05;;;17.30;99.90;;;;;;20598421;28;20038;-80
2021/08/29 17:05:28;;;;;;;3.88;1.52;;;17.10;99.90;;;;;;20528406;28;20045;-80
2021/08/29 17:15:30;;;;;;;3.03;1.55;;;17.10;99.90;;;;;;20520615;28;20056;-80
2021/08/29 17:25:31;;;;;;;3.20;1.52;;;17.10;99.90;;;;;;20543166;28;20048;-80
2021/08/29 17:35:33;;;;;;;2.67;1.25;;;17.10;99.90;;;;;;20566882;28;20198;-80
2021/08/29 17:45:34;;;;;;;11.38;1.90;;;17.10;99.90;;;;;;20607400;28;20078;-80
2021/08/29 17:55:35;;;;;;;4.45;1.50;;;17.10;99.90;;;;;;20567257;28;20500;-80
2021/08/29 18:05:36;;;;;;;11.80;1.92;;;17.10;99.90;;;;;;20554179;28;20058;-80
2021/08/29 18:15:37;;;;;;;3.42;1.73;;;17.10;99.90;;;;;;20547453;28;20047;-80
2021/08/29 18:25:38;;;;;;;4.07;1.88;;;17.10;99.90;;;;;;20567054;28;20051;-80
2021/08/29 18:35:40;;;;;;;7.28;2.10;;;17.10;99.90;;;;;;20602896;28;20649;-80
2021/08/29 18:45:41;;;;;;;4.13;1.90;;;17.10;99.90;;;;;;20583542;28;20051;-80
2021/08/29 18:55:42;;;;;;;3.45;1.35;;;17.10;99.90;;;;;;20575162;28;20049;-80
2021/08/29 19:05:43;;;;;;;5.93;1.40;;;17.10;99.90;;;;;;20593812;28;20050;-80
2021/08/29 19:15:44;;;;;;;5.50;1.70;;;17.10;99.90;;;;;;20568968;28;20050;-79
2021/08/29 19:25:45;;;;;;;4.57;1.35;;;17.00;99.90;;;;;;20587053;28;20933;-80
2021/08/29 19:35:47;;;;;;;3.28;1.23;;;17.10;99.90;;;;;;20566438;28;20044;-80
2021/08/29 19:45:48;;;;;;;4.47;1.33;;;17.00;99.90;;;;;;20545397;28;20045;-80
2021/08/29 19:55:49;;;;;;;6.60;1.45;;;17.00;99.90;;;;;;20577109;28;20063;-80
2021/08/29 20:05:50;;;;;;;5.28;1.88;;;17.00;99.90;;;;;;20512933;28;20134;-81
2021/08/29 20:15:52;;;;;;;3.90;1.58;;;17.00;99.90;;;;;;20539343;28;20897;-80
2021/08/29 20:25:53;;;;;;;6.88;1.90;;;17.00;99.90;;;;;;20516049;28;20513;-80
2021/08/29 20:35:54;;;;;;;4.80;1.80;;;17.10;99.90;;;;;;20572034;28;20057;-80
2021/08/29 20:45:55;;;;;;;3.65;1.80;;;17.00;99.90;;;;;;20525081;28;20043;-80
2021/08/29 20:55:57;;;;;;;4.97;2.13;;;17.00;99.90;;;;;;20513175;28;20490;-80
2021/08/29 21:05:58;;;;;;;5.95;1.80;;;17.00;99.90;;;;;;20575350;28;20150;-80
2021/08/29 21:15:59;;;;;;;4.32;1.50;;;17.00;99.90;;;;;;20545540;28;20489;-80
2021/08/29 21:26:00;;;;;;;5.63;1.85;;;17.20;99.90;;;;;;20492308;28;20047;-80
2021/08/29 21:36:01;;;;;;;3.05;1.23;;;17.20;99.90;;;;;;20546738;28;20031;-80
2021/08/29 21:46:06;;;;;;;7.60;2.20;;;17.10;99.90;;;;;;20524264;28;20834;-80
2021/08/29 21:56:07;;;;;;;5.97;1.45;;;17.20;99.90;;;;;;20547855;28;20541;-80
2021/08/29 22:06:08;;;;;;;4.25;1.50;;;17.20;99.90;;;;;;20499526;28;20038;-80
2021/08/29 22:16:09;;;;;;;3.13;1.38;;;17.20;99.90;;;;;;20509260;28;20043;-80
2021/08/29 22:26:10;;;;;;;9.13;1.45;;;17.10;99.90;;;;;;20547678;28;20057;-80
2021/08/29 22:36:11;;;;;;;3.47;1.35;;;17.20;99.90;;;;;;20559368;28;20048;-80
2021/08/29 22:46:12;;;;;;;2.72;1.30;;;17.20;99.90;;;;;;20554793;28;20052;-81
2021/08/29 22:56:13;;;;;;;4.82;1.40;;;17.20;99.90;;;;;;20501564;28;20040;-81
2021/08/29 23:06:15;;;;;;;4.50;2.00;;;17.20;99.90;;;;;;20536697;28;20047;-80
2021/08/29 23:16:17;;;;;;;6.95;1.85;;;17.10;99.90;;;;;;20548734;28;20054;-80
2021/08/29 23:26:18;;;;;;;5.72;1.75;;;17.10;99.90;;;;;;20512711;28;20082;-80
2021/08/29 23:36:20;;;;;;;3.22;1.38;;;17.00;99.90;;;;;;20540241;28;20040;-80
2021/08/29 23:46:21;;;;;;;3.58;1.38;;;16.90;99.90;;;;;;20584279;28;20047;-80
2021/08/29 23:56:22;;;;;;;3.67;1.23;;;17.00;99.90;;;;;;20533329;28;20039;-80
